sensor_id;sensor_type;location;lat;lon;timestamp;temperature;humidity
21592;DHT22;10958;50.892;3.992;2023-08-12T00:00:43;22.80;99.90
21592;DHT22;10958;50.892;3.992;2023-08-12T00:03:12;22.80;99.90
21592;DHT22;10958;50.892;3.992;2023-08-12T00:05:38;22.90;99.90
21592;DHT22;10958;50.892;3.992;2023-08-12T00:08:05;22.70;99.90
21592;DHT22;10958;50.892;3.992;2023-08-12T00:10:31;22.60;99.90
21592;DHT22;10958;50.892;3.992;2023-08-12T00:12:57;22.60;99.90
21592;DHT22;10958;50.892;3.992;2023-08-12T00:15:25;22.50;99.90
21592;DHT22;10958;50.892;3.992;2023-08-12T00:17:51;22.40;99.90
21592;DHT22;10958;50.892;3.992;2023-08-12T00:20:19;22.30;99.90
21592;DHT22;10958;50.892;3.992;2023-08-12T00:22:46;22.30;99.90
21592;DHT22;10958;50.892;3.992;2023-08-12T00:25:12;22.20;99.90
21592;DHT22;10958;50.892;3.992;2023-08-12T00:27:40;22.10;99.90
21592;DHT22;10958;50.892;3.992;2023-08-12T00:30:06;22.20;99.90
21592;DHT22;10958;50.892;3.992;2023-08-12T00:32:32;22.10;99.90
21592;DHT22;10958;50.892;3.992;2023-08-12T00:34:57;22.10;99.90
21592;DHT22;10958;50.892;3.992;2023-08-12T00:37:23;22.10;99.90
21592;DHT22;10958;50.892;3.992;2023-08-12T00:39:49;22.10;99.90
21592;DHT22;10958;50.892;3.992;2023-08-12T00:42:15;22.10;99.90
21592;DHT22;10958;50.892;3.992;2023-08-12T00:44:41;22.20;99.90
21592;DHT22;10958;50.892;3.992;2023-08-12T00:47:09;22.20;99.90
21592;DHT22;10958;50.892;3.992;2023-08-12T00:49:35;22.40;99.90
21592;DHT22;10958;50.892;3.992;2023-08-12T00:52:03;22.30;99.90
21592;DHT22;10958;50.892;3.992;2023-08-12T00:54:29;22.30;99.90
21592;DHT22;10958;50.892;3.992;2023-08-12T00:56:55;22.40;99.90
21592;DHT22;10958;50.892;3.992;2023-08-12T00:59:22;22.40;99.90
21592;DHT22;10958;50.892;3.992;2023-08-12T01:01:51;22.40;99.90
21592;DHT22;10958;50.892;3.992;2023-08-12T01:04:16;22.40;99.90
21592;DHT22;10958;50.892;3.992;2023-08-12T01:06:42;22.50;99.90
21592;DHT22;10958;50.892;3.992;2023-08-12T01:09:10;22.50;99.90
21592;DHT22;10958;50.892;3.992;2023-08-12T01:11:42;22.40;99.90
21592;DHT22;10958;50.892;3.992;2023-08-12T01:14:25;22.40;99.90
21592;DHT22;10958;50.892;3.992;2023-08-12T01:16:57;22.60;99.90
21592;DHT22;10958;50.892;3.992;2023-08-12T01:19:38;22.60;99.90
21592;DHT22;10958;50.892;3.992;2023-08-12T01:22:08;22.50;99.90
21592;DHT22;10958;50.892;3.992;2023-08-12T01:24:38;22.50;99.90
21592;DHT22;10958;50.892;3.992;2023-08-12T01:27:04;22.50;99.90
21592;DHT22;10958;50.892;3.992;2023-08-12T01:29:31;22.50;99.90
21592;DHT22;10958;50.892;3.992;2023-08-12T01:35:30;22.40;99.90
21592;DHT22;10958;50.892;3.992;2023-08-12T01:37:59;22.50;99.90
21592;DHT22;10958;50.892;3.992;2023-08-12T01:40:31;22.50;99.90
21592;DHT22;10958;50.892;3.992;2023-08-12T01:42:58;22.50;99.90
21592;DHT22;10958;50.892;3.992;2023-08-12T01:45:26;22.50;99.90
21592;DHT22;10958;50.892;3.992;2023-08-12T01:47:52;22.50;99.90
21592;DHT22;10958;50.892;3.992;2023-08-12T01:50:18;22.40;99.90
21592;DHT22;10958;50.892;3.992;2023-08-12T01:52:44;22.40;99.90
21592;DHT22;10958;50.892;3.992;2023-08-12T01:55:10;22.50;99.90
21592;DHT22;10958;50.892;3.992;2023-08-12T01:57:36;22.50;99.90
21592;DHT22;10958;50.892;3.992;2023-08-12T02:00:02;22.50;99.90
21592;DHT22;10958;50.892;3.992;2023-08-12T02:02:28;22.40;99.90
21592;DHT22;10958;50.892;3.992;2023-08-12T02:04:53;22.40;99.90
21592;DHT22;10958;50.892;3.992;2023-08-12T02:07:19;22.40;99.90
21592;DHT22;10958;50.892;3.992;2023-08-12T02:09:44;22.30;99.90
21592;DHT22;10958;50.892;3.992;2023-08-12T02:12:12;22.50;99.90
21592;DHT22;10958;50.892;3.992;2023-08-12T02:14:38;22.50;99.90
21592;DHT22;10958;50.892;3.992;2023-08-12T02:17:07;22.50;99.90
21592;DHT22;10958;50.892;3.992;2023-08-12T02:19:33;22.60;99.90
21592;DHT22;10958;50.892;3.992;2023-08-12T02:22:00;22.70;99.90
21592;DHT22;10958;50.892;3.992;2023-08-12T02:24:27;22.60;99.90
21592;DHT22;10958;50.892;3.992;2023-08-12T02:26:53;22.60;99.90
21592;DHT22;10958;50.892;3.992;2023-08-12T02:29:21;22.60;99.90
21592;DHT22;10958;50.892;3.992;2023-08-12T02:31:47;22.60;99.90
21592;DHT22;10958;50.892;3.992;2023-08-12T02:34:13;22.50;99.90
21592;DHT22;10958;50.892;3.992;2023-08-12T02:36:39;22.60;99.90
21592;DHT22;10958;50.892;3.992;2023-08-12T02:39:04;22.70;99.90
21592;DHT22;10958;50.892;3.992;2023-08-12T02:41:31;22.80;99.90
21592;DHT22;10958;50.892;3.992;2023-08-12T02:43:56;22.70;99.90
21592;DHT22;10958;50.892;3.992;2023-08-12T02:46:22;22.50;99.90
21592;DHT22;10958;50.892;3.992;2023-08-12T02:48:48;22.50;99.90
21592;DHT22;10958;50.892;3.992;2023-08-12T02:51:14;22.60;99.90
21592;DHT22;10958;50.892;3.992;2023-08-12T02:53:40;22.30;99.90
21592;DHT22;10958;50.892;3.992;2023-08-12T02:56:06;22.40;99.90
21592;DHT22;10958;50.892;3.992;2023-08-12T02:58:31;22.30;99.90
21592;DHT22;10958;50.892;3.992;2023-08-12T03:00:58;22.30;99.90
21592;DHT22;10958;50.892;3.992;2023-08-12T03:03:23;22.20;99.90
21592;DHT22;10958;50.892;3.992;2023-08-12T03:05:52;22.00;99.90
21592;DHT22;10958;50.892;3.992;2023-08-12T03:08:18;22.00;99.90
21592;DHT22;10958;50.892;3.992;2023-08-12T03:10:44;22.00;99.90
21592;DHT22;10958;50.892;3.992;2023-08-12T03:13:10;22.10;99.90
21592;DHT22;10958;50.892;3.992;2023-08-12T03:15:39;22.10;99.90
21592;DHT22;10958;50.892;3.992;2023-08-12T03:18:05;22.00;99.90
21592;DHT22;10958;50.892;3.992;2023-08-12T03:20:33;21.90;99.90
21592;DHT22;10958;50.892;3.992;2023-08-12T03:22:59;21.80;99.90
21592;DHT22;10958;50.892;3.992;2023-08-12T03:25:25;21.80;99.90
21592;DHT22;10958;50.892;3.992;2023-08-12T03:27:51;21.80;99.90
21592;DHT22;10958;50.892;3.992;2023-08-12T03:30:17;21.80;99.90
21592;DHT22;10958;50.892;3.992;2023-08-12T03:32:43;21.80;99.90
21592;DHT22;10958;50.892;3.992;2023-08-12T03:35:11;21.90;99.90
21592;DHT22;10958;50.892;3.992;2023-08-12T03:37:37;21.90;99.90
21592;DHT22;10958;50.892;3.992;2023-08-12T03:40:02;21.90;99.90
21592;DHT22;10958;50.892;3.992;2023-08-12T03:42:29;21.90;99.90
21592;DHT22;10958;50.892;3.992;2023-08-12T03:44:54;21.90;99.90
21592;DHT22;10958;50.892;3.992;2023-08-12T03:47:23;21.60;99.90
21592;DHT22;10958;50.892;3.992;2023-08-12T03:49:50;21.50;99.90
21592;DHT22;10958;50.892;3.992;2023-08-12T03:52:15;21.40;99.90
21592;DHT22;10958;50.892;3.992;2023-08-12T03:54:41;21.40;99.90
21592;DHT22;10958;50.892;3.992;2023-08-12T03:57:07;21.50;99.90
21592;DHT22;10958;50.892;3.992;2023-08-12T03:59:33;21.40;99.90
21592;DHT22;10958;50.892;3.992;2023-08-12T04:01:58;21.10;99.90
21592;DHT22;10958;50.892;3.992;2023-08-12T04:04:24;21.00;99.90
21592;DHT22;10958;50.892;3.992;2023-08-12T04:06:50;21.10;99.90
21592;DHT22;10958;50.892;3.992;2023-08-12T04:09:19;21.00;99.90
21592;DHT22;10958;50.892;3.992;2023-08-12T04:11:45;21.00;99.90
21592;DHT22;10958;50.892;3.992;2023-08-12T04:14:13;20.90;99.90
21592;DHT22;10958;50.892;3.992;2023-08-12T04:16:39;20.90;99.90
21592;DHT22;10958;50.892;3.992;2023-08-12T04:19:05;20.80;99.90
21592;DHT22;10958;50.892;3.992;2023-08-12T04:21:32;20.90;99.90
21592;DHT22;10958;50.892;3.992;2023-08-12T04:23:58;20.90;99.90
21592;DHT22;10958;50.892;3.992;2023-08-12T04:26:23;20.80;99.90
21592;DHT22;10958;50.892;3.992;2023-08-12T04:28:49;20.70;99.90
21592;DHT22;10958;50.892;3.992;2023-08-12T04:31:15;20.70;99.90
21592;DHT22;10958;50.892;3.992;2023-08-12T04:33:40;20.70;99.90
21592;DHT22;10958;50.892;3.992;2023-08-12T04:36:07;20.70;99.90
21592;DHT22;10958;50.892;3.992;2023-08-12T04:38:33;20.80;99.90
21592;DHT22;10958;50.892;3.992;2023-08-12T04:40:58;20.80;99.90
21592;DHT22;10958;50.892;3.992;2023-08-12T04:43:25;20.70;99.90
21592;DHT22;10958;50.892;3.992;2023-08-12T04:45:52;20.60;99.90
21592;DHT22;10958;50.892;3.992;2023-08-12T04:48:18;20.70;99.90
21592;DHT22;10958;50.892;3.992;2023-08-12T04:50:44;20.60;99.90
21592;DHT22;10958;50.892;3.992;2023-08-12T04:53:10;20.70;99.90
21592;DHT22;10958;50.892;3.992;2023-08-12T04:55:36;20.70;99.90
21592;DHT22;10958;50.892;3.992;2023-08-12T04:58:05;20.80;99.90
21592;DHT22;10958;50.892;3.992;2023-08-12T05:00:30;20.80;99.90
21592;DHT22;10958;50.892;3.992;2023-08-12T05:02:56;20.80;99.90
21592;DHT22;10958;50.892;3.992;2023-08-12T05:05:26;20.80;99.90
21592;DHT22;10958;50.892;3.992;2023-08-12T05:07:52;20.70;99.90
21592;DHT22;10958;50.892;3.992;2023-08-12T05:10:18;20.60;99.90
21592;DHT22;10958;50.892;3.992;2023-08-12T05:12:44;20.60;99.90
21592;DHT22;10958;50.892;3.992;2023-08-12T05:15:11;20.60;99.90
21592;DHT22;10958;50.892;3.992;2023-08-12T05:17:37;20.60;99.90
21592;DHT22;10958;50.892;3.992;2023-08-12T05:20:04;20.60;99.90
21592;DHT22;10958;50.892;3.992;2023-08-12T05:22:30;20.60;99.90
21592;DHT22;10958;50.892;3.992;2023-08-12T05:24:58;20.60;99.90
21592;DHT22;10958;50.892;3.992;2023-08-12T05:27:25;20.60;99.90
21592;DHT22;10958;50.892;3.992;2023-08-12T05:29:50;20.50;99.90
21592;DHT22;10958;50.892;3.992;2023-08-12T05:32:16;20.60;99.90
21592;DHT22;10958;50.892;3.992;2023-08-12T05:34:41;20.70;99.90
21592;DHT22;10958;50.892;3.992;2023-08-12T05:37:07;20.70;99.90
21592;DHT22;10958;50.892;3.992;2023-08-12T05:39:33;20.60;99.90
21592;DHT22;10958;50.892;3.992;2023-08-12T05:41:59;20.70;99.90
21592;DHT22;10958;50.892;3.992;2023-08-12T05:44:26;20.70;99.90
21592;DHT22;10958;50.892;3.992;2023-08-12T05:46:52;20.60;99.90
21592;DHT22;10958;50.892;3.992;2023-08-12T05:49:18;20.60;99.90
21592;DHT22;10958;50.892;3.992;2023-08-12T05:51:44;20.70;99.90
21592;DHT22;10958;50.892;3.992;2023-08-12T05:54:10;20.80;99.90
21592;DHT22;10958;50.892;3.992;2023-08-12T05:56:39;20.70;99.90
21592;DHT22;10958;50.892;3.992;2023-08-12T05:59:04;20.70;99.90
21592;DHT22;10958;50.892;3.992;2023-08-12T06:01:30;20.80;99.90
21592;DHT22;10958;50.892;3.992;2023-08-12T06:03:55;20.80;99.90
21592;DHT22;10958;50.892;3.992;2023-08-12T06:06:23;20.80;99.90
21592;DHT22;10958;50.892;3.992;2023-08-12T06:08:52;20.80;99.90
21592;DHT22;10958;50.892;3.992;2023-08-12T06:11:18;20.80;99.90
21592;DHT22;10958;50.892;3.992;2023-08-12T06:13:43;20.60;99.90
21592;DHT22;10958;50.892;3.992;2023-08-12T06:16:11;20.30;99.90
21592;DHT22;10958;50.892;3.992;2023-08-12T06:18:39;19.90;99.90
21592;DHT22;10958;50.892;3.992;2023-08-12T06:21:05;19.50;99.90
21592;DHT22;10958;50.892;3.992;2023-08-12T06:23:30;19.40;99.90
21592;DHT22;10958;50.892;3.992;2023-08-12T06:25:56;19.20;99.90
21592;DHT22;10958;50.892;3.992;2023-08-12T06:28:22;19.20;99.90
21592;DHT22;10958;50.892;3.992;2023-08-12T06:30:50;19.00;99.90
21592;DHT22;10958;50.892;3.992;2023-08-12T06:33:16;18.90;99.90
21592;DHT22;10958;50.892;3.992;2023-08-12T06:35:41;18.90;99.90
21592;DHT22;10958;50.892;3.992;2023-08-12T06:38:12;18.80;99.90
21592;DHT22;10958;50.892;3.992;2023-08-12T06:40:39;18.80;99.90
21592;DHT22;10958;50.892;3.992;2023-08-12T06:43:04;18.70;99.90
21592;DHT22;10958;50.892;3.992;2023-08-12T06:45:30;18.60;99.90
21592;DHT22;10958;50.892;3.992;2023-08-12T06:47:56;18.60;99.90
21592;DHT22;10958;50.892;3.992;2023-08-12T06:50:24;18.70;99.90
21592;DHT22;10958;50.892;3.992;2023-08-12T06:52:51;18.60;99.90
21592;DHT22;10958;50.892;3.992;2023-08-12T06:55:16;18.60;99.90
21592;DHT22;10958;50.892;3.992;2023-08-12T06:57:43;18.60;99.90
21592;DHT22;10958;50.892;3.992;2023-08-12T07:00:09;18.50;99.90
21592;DHT22;10958;50.892;3.992;2023-08-12T07:02:35;18.40;99.90
21592;DHT22;10958;50.892;3.992;2023-08-12T07:05:05;18.30;99.90
21592;DHT22;10958;50.892;3.992;2023-08-12T07:07:33;18.30;99.90
21592;DHT22;10958;50.892;3.992;2023-08-12T07:09:59;18.40;99.90
21592;DHT22;10958;50.892;3.992;2023-08-12T07:12:24;18.20;99.90
21592;DHT22;10958;50.892;3.992;2023-08-12T07:14:50;18.20;99.90
21592;DHT22;10958;50.892;3.992;2023-08-12T07:17:16;18.30;99.90
21592;DHT22;10958;50.892;3.992;2023-08-12T07:19:41;18.60;99.90
21592;DHT22;10958;50.892;3.992;2023-08-12T07:22:07;18.80;99.90
21592;DHT22;10958;50.892;3.992;2023-08-12T07:24:33;19.20;99.90
21592;DHT22;10958;50.892;3.992;2023-08-12T07:27:00;19.40;99.90
21592;DHT22;10958;50.892;3.992;2023-08-12T07:29:26;19.90;99.90
21592;DHT22;10958;50.892;3.992;2023-08-12T07:31:52;19.90;99.90
21592;DHT22;10958;50.892;3.992;2023-08-12T07:34:18;20.10;99.90
21592;DHT22;10958;50.892;3.992;2023-08-12T07:36:44;20.30;99.90
21592;DHT22;10958;50.892;3.992;2023-08-12T07:39:10;20.40;99.90
21592;DHT22;10958;50.892;3.992;2023-08-12T07:41:36;20.30;99.90
21592;DHT22;10958;50.892;3.992;2023-08-12T07:44:03;20.10;99.90
21592;DHT22;10958;50.892;3.992;2023-08-12T07:46:29;20.40;99.90
21592;DHT22;10958;50.892;3.992;2023-08-12T07:48:56;20.50;99.90
21592;DHT22;10958;50.892;3.992;2023-08-12T07:51:22;20.40;99.90
21592;DHT22;10958;50.892;3.992;2023-08-12T07:53:48;20.10;99.90
21592;DHT22;10958;50.892;3.992;2023-08-12T07:56:14;19.90;99.90
21592;DHT22;10958;50.892;3.992;2023-08-12T07:58:39;19.80;99.90
21592;DHT22;10958;50.892;3.992;2023-08-12T08:01:05;19.90;99.90
21592;DHT22;10958;50.892;3.992;2023-08-12T08:03:31;19.70;99.90
21592;DHT22;10958;50.892;3.992;2023-08-12T08:05:57;19.60;99.90
21592;DHT22;10958;50.892;3.992;2023-08-12T08:08:22;19.80;99.90
21592;DHT22;10958;50.892;3.992;2023-08-12T08:10:48;19.90;99.90
21592;DHT22;10958;50.892;3.992;2023-08-12T08:13:14;20.00;99.90
21592;DHT22;10958;50.892;3.992;2023-08-12T08:15:40;19.90;99.90
21592;DHT22;10958;50.892;3.992;2023-08-12T08:18:06;19.90;99.90
21592;DHT22;10958;50.892;3.992;2023-08-12T08:20:32;20.00;99.90
21592;DHT22;10958;50.892;3.992;2023-08-12T08:22:58;20.20;99.90
21592;DHT22;10958;50.892;3.992;2023-08-12T08:25:24;20.60;99.90
21592;DHT22;10958;50.892;3.992;2023-08-12T08:27:49;20.90;99.90
21592;DHT22;10958;50.892;3.992;2023-08-12T08:30:15;21.30;99.90
21592;DHT22;10958;50.892;3.992;2023-08-12T08:32:41;21.50;99.90
21592;DHT22;10958;50.892;3.992;2023-08-12T08:35:06;21.50;99.90
21592;DHT22;10958;50.892;3.992;2023-08-12T08:37:32;21.60;99.90
21592;DHT22;10958;50.892;3.992;2023-08-12T08:39:58;21.50;99.90
21592;DHT22;10958;50.892;3.992;2023-08-12T08:42:24;21.60;99.90
21592;DHT22;10958;50.892;3.992;2023-08-12T08:44:58;21.70;99.90
21592;DHT22;10958;50.892;3.992;2023-08-12T08:47:27;21.90;99.90
21592;DHT22;10958;50.892;3.992;2023-08-12T08:49:57;21.70;99.90
21592;DHT22;10958;50.892;3.992;2023-08-12T08:52:23;21.50;99.90
21592;DHT22;10958;50.892;3.992;2023-08-12T08:54:52;21.70;99.90
21592;DHT22;10958;50.892;3.992;2023-08-12T08:57:20;22.00;99.90
21592;DHT22;10958;50.892;3.992;2023-08-12T08:59:46;22.40;99.90
21592;DHT22;10958;50.892;3.992;2023-08-12T09:02:19;22.30;99.90
21592;DHT22;10958;50.892;3.992;2023-08-12T09:04:47;22.50;99.90
21592;DHT22;10958;50.892;3.992;2023-08-12T09:07:15;22.30;99.90
21592;DHT22;10958;50.892;3.992;2023-08-12T09:09:45;22.50;99.90
21592;DHT22;10958;50.892;3.992;2023-08-12T09:12:15;22.40;99.90
21592;DHT22;10958;50.892;3.992;2023-08-12T09:14:44;22.20;99.90
21592;DHT22;10958;50.892;3.992;2023-08-12T09:17:10;22.10;99.90
21592;DHT22;10958;50.892;3.992;2023-08-12T09:19:36;22.10;99.90
21592;DHT22;10958;50.892;3.992;2023-08-12T09:22:07;22.10;99.90
21592;DHT22;10958;50.892;3.992;2023-08-12T09:24:34;22.30;99.90
21592;DHT22;10958;50.892;3.992;2023-08-12T09:27:00;22.50;99.90
21592;DHT22;10958;50.892;3.992;2023-08-12T09:29:33;22.90;99.90
21592;DHT22;10958;50.892;3.992;2023-08-12T09:32:18;23.00;99.90
21592;DHT22;10958;50.892;3.992;2023-08-12T09:34:49;23.00;99.90
21592;DHT22;10958;50.892;3.992;2023-08-12T09:37:15;22.80;99.90
21592;DHT22;10958;50.892;3.992;2023-08-12T09:39:41;23.70;99.90
21592;DHT22;10958;50.892;3.992;2023-08-12T09:42:08;24.00;99.90
21592;DHT22;10958;50.892;3.992;2023-08-12T09:44:40;24.60;99.90
21592;DHT22;10958;50.892;3.992;2023-08-12T09:47:07;24.60;99.90
21592;DHT22;10958;50.892;3.992;2023-08-12T09:49:38;24.60;99.90
21592;DHT22;10958;50.892;3.992;2023-08-12T09:52:05;24.50;99.90
21592;DHT22;10958;50.892;3.992;2023-08-12T09:54:35;24.50;99.90
21592;DHT22;10958;50.892;3.992;2023-08-12T09:57:02;24.40;99.90
21592;DHT22;10958;50.892;3.992;2023-08-12T09:59:33;24.30;99.90
21592;DHT22;10958;50.892;3.992;2023-08-12T10:03:34;24.50;99.90
21592;DHT22;10958;50.892;3.992;2023-08-12T10:06:05;24.50;99.90
21592;DHT22;10958;50.892;3.992;2023-08-12T10:08:31;24.60;99.90
21592;DHT22;10958;50.892;3.992;2023-08-12T10:10:58;24.80;99.90
21592;DHT22;10958;50.892;3.992;2023-08-12T10:13:24;24.90;99.90
21592;DHT22;10958;50.892;3.992;2023-08-12T10:15:50;25.20;99.90
21592;DHT22;10958;50.892;3.992;2023-08-12T10:18:18;25.40;99.90
21592;DHT22;10958;50.892;3.992;2023-08-12T10:20:44;25.80;99.90
21592;DHT22;10958;50.892;3.992;2023-08-12T10:23:15;26.00;99.90
21592;DHT22;10958;50.892;3.992;2023-08-12T10:25:41;26.10;99.90
21592;DHT22;10958;50.892;3.992;2023-08-12T10:28:08;26.30;99.90
21592;DHT22;10958;50.892;3.992;2023-08-12T10:30:36;26.20;99.90
21592;DHT22;10958;50.892;3.992;2023-08-12T10:33:04;26.10;99.90
21592;DHT22;10958;50.892;3.992;2023-08-12T10:35:43;26.00;99.90
21592;DHT22;10958;50.892;3.992;2023-08-12T10:38:14;25.90;99.90
21592;DHT22;10958;50.892;3.992;2023-08-12T10:40:42;25.80;99.90
21592;DHT22;10958;50.892;3.992;2023-08-12T10:43:14;24.90;99.90
21592;DHT22;10958;50.892;3.992;2023-08-12T10:45:52;24.80;99.90
21592;DHT22;10958;50.892;3.992;2023-08-12T10:48:22;24.60;99.90
21592;DHT22;10958;50.892;3.992;2023-08-12T10:50:52;24.60;99.90
21592;DHT22;10958;50.892;3.992;2023-08-12T10:53:31;24.80;99.90
21592;DHT22;10958;50.892;3.992;2023-08-12T10:56:11;25.00;99.90
21592;DHT22;10958;50.892;3.992;2023-08-12T10:58:47;25.10;99.90
21592;DHT22;10958;50.892;3.992;2023-08-12T11:01:19;25.20;99.90
21592;DHT22;10958;50.892;3.992;2023-08-12T11:03:46;24.90;99.90
21592;DHT22;10958;50.892;3.992;2023-08-12T11:06:12;24.90;99.90
21592;DHT22;10958;50.892;3.992;2023-08-12T11:08:51;24.60;99.90
21592;DHT22;10958;50.892;3.992;2023-08-12T11:11:22;24.50;99.90
21592;DHT22;10958;50.892;3.992;2023-08-12T11:13:56;24.80;99.90
21592;DHT22;10958;50.892;3.992;2023-08-12T11:16:37;24.80;99.90
21592;DHT22;10958;50.892;3.992;2023-08-12T11:19:04;25.00;99.90
21592;DHT22;10958;50.892;3.992;2023-08-12T11:21:35;25.20;99.90
21592;DHT22;10958;50.892;3.992;2023-08-12T11:24:02;25.00;99.90
21592;DHT22;10958;50.892;3.992;2023-08-12T11:26:28;24.90;99.90
21592;DHT22;10958;50.892;3.992;2023-08-12T11:28:54;24.70;99.90
21592;DHT22;10958;50.892;3.992;2023-08-12T11:31:22;24.70;99.90
21592;DHT22;10958;50.892;3.992;2023-08-12T11:33:53;25.00;99.90
21592;DHT22;10958;50.892;3.992;2023-08-12T11:36:19;24.90;99.90
21592;DHT22;10958;50.892;3.992;2023-08-12T11:38:45;25.00;99.90
21592;DHT22;10958;50.892;3.992;2023-08-12T11:41:13;25.10;99.90
21592;DHT22;10958;50.892;3.992;2023-08-12T11:43:39;25.00;99.90
21592;DHT22;10958;50.892;3.992;2023-08-12T11:46:07;25.20;99.90
21592;DHT22;10958;50.892;3.992;2023-08-12T11:48:33;25.30;99.90
21592;DHT22;10958;50.892;3.992;2023-08-12T11:50:59;25.40;99.90
21592;DHT22;10958;50.892;3.992;2023-08-12T11:53:28;25.20;99.90
21592;DHT22;10958;50.892;3.992;2023-08-12T11:55:54;25.20;99.90
21592;DHT22;10958;50.892;3.992;2023-08-12T11:58:20;25.20;99.90
21592;DHT22;10958;50.892;3.992;2023-08-12T12:00:47;25.40;99.90
21592;DHT22;10958;50.892;3.992;2023-08-12T12:03:13;25.40;99.90
21592;DHT22;10958;50.892;3.992;2023-08-12T12:05:41;25.40;99.90
21592;DHT22;10958;50.892;3.992;2023-08-12T12:08:06;24.90;99.90
21592;DHT22;10958;50.892;3.992;2023-08-12T12:10:34;24.80;99.90
21592;DHT22;10958;50.892;3.992;2023-08-12T12:13:03;25.20;99.90
21592;DHT22;10958;50.892;3.992;2023-08-12T12:15:30;25.20;99.90
21592;DHT22;10958;50.892;3.992;2023-08-12T12:17:55;25.40;99.90
21592;DHT22;10958;50.892;3.992;2023-08-12T12:20:21;25.60;99.90
21592;DHT22;10958;50.892;3.992;2023-08-12T12:22:50;25.70;99.90
21592;DHT22;10958;50.892;3.992;2023-08-12T12:25:18;25.60;99.90
21592;DHT22;10958;50.892;3.992;2023-08-12T12:27:47;25.30;99.90
21592;DHT22;10958;50.892;3.992;2023-08-12T12:30:16;25.40;99.90
21592;DHT22;10958;50.892;3.992;2023-08-12T12:32:42;25.60;99.90
21592;DHT22;10958;50.892;3.992;2023-08-12T12:35:10;25.80;99.90
21592;DHT22;10958;50.892;3.992;2023-08-12T12:37:36;25.90;99.90
21592;DHT22;10958;50.892;3.992;2023-08-12T12:40:03;25.70;99.90
21592;DHT22;10958;50.892;3.992;2023-08-12T12:42:35;25.60;99.90
21592;DHT22;10958;50.892;3.992;2023-08-12T12:45:04;25.60;99.90
21592;DHT22;10958;50.892;3.992;2023-08-12T12:47:30;25.20;99.90
21592;DHT22;10958;50.892;3.992;2023-08-12T12:49:56;25.40;99.90
21592;DHT22;10958;50.892;3.992;2023-08-12T12:52:22;25.50;99.90
21592;DHT22;10958;50.892;3.992;2023-08-12T12:54:50;25.60;99.90
21592;DHT22;10958;50.892;3.992;2023-08-12T12:57:19;25.80;99.90
21592;DHT22;10958;50.892;3.992;2023-08-12T12:59:44;25.80;99.90
21592;DHT22;10958;50.892;3.992;2023-08-12T13:02:10;26.00;99.90
21592;DHT22;10958;50.892;3.992;2023-08-12T13:04:39;26.00;99.90
21592;DHT22;10958;50.892;3.992;2023-08-12T13:07:05;26.20;99.90
21592;DHT22;10958;50.892;3.992;2023-08-12T13:09:33;26.10;99.90
21592;DHT22;10958;50.892;3.992;2023-08-12T13:11:59;25.80;99.90
21592;DHT22;10958;50.892;3.992;2023-08-12T13:14:25;25.60;99.90
21592;DHT22;10958;50.892;3.992;2023-08-12T13:16:51;25.80;99.90
21592;DHT22;10958;50.892;3.992;2023-08-12T13:19:18;25.80;99.90
21592;DHT22;10958;50.892;3.992;2023-08-12T13:21:47;25.80;99.90
21592;DHT22;10958;50.892;3.992;2023-08-12T13:24:15;25.60;99.90
21592;DHT22;10958;50.892;3.992;2023-08-12T13:26:43;25.40;99.90
21592;DHT22;10958;50.892;3.992;2023-08-12T13:29:13;25.70;99.90
21592;DHT22;10958;50.892;3.992;2023-08-12T13:31:39;25.70;99.90
21592;DHT22;10958;50.892;3.992;2023-08-12T13:34:07;25.80;99.90
21592;DHT22;10958;50.892;3.992;2023-08-12T13:36:33;26.00;99.90
21592;DHT22;10958;50.892;3.992;2023-08-12T13:39:01;26.30;99.90
21592;DHT22;10958;50.892;3.992;2023-08-12T13:41:26;26.30;99.90
21592;DHT22;10958;50.892;3.992;2023-08-12T13:43:52;26.30;99.90
21592;DHT22;10958;50.892;3.992;2023-08-12T13:46:18;26.20;99.90
21592;DHT22;10958;50.892;3.992;2023-08-12T13:48:43;26.20;99.90
21592;DHT22;10958;50.892;3.992;2023-08-12T13:51:09;26.30;99.90
21592;DHT22;10958;50.892;3.992;2023-08-12T13:53:38;26.30;99.90
21592;DHT22;10958;50.892;3.992;2023-08-12T13:56:03;25.90;99.90
21592;DHT22;10958;50.892;3.992;2023-08-12T13:58:30;25.70;99.90
21592;DHT22;10958;50.892;3.992;2023-08-12T14:00:58;25.50;99.90
21592;DHT22;10958;50.892;3.992;2023-08-12T14:03:24;25.80;99.90
21592;DHT22;10958;50.892;3.992;2023-08-12T14:05:54;25.90;99.90
21592;DHT22;10958;50.892;3.992;2023-08-12T14:08:19;25.90;99.90
21592;DHT22;10958;50.892;3.992;2023-08-12T14:10:48;25.50;99.90
21592;DHT22;10958;50.892;3.992;2023-08-12T14:13:18;25.60;99.90
21592;DHT22;10958;50.892;3.992;2023-08-12T14:15:43;25.80;99.90
21592;DHT22;10958;50.892;3.992;2023-08-12T14:18:09;26.00;99.90
21592;DHT22;10958;50.892;3.992;2023-08-12T14:20:35;26.20;99.90
21592;DHT22;10958;50.892;3.992;2023-08-12T14:23:01;26.40;99.90
21592;DHT22;10958;50.892;3.992;2023-08-12T14:25:26;26.50;99.90
21592;DHT22;10958;50.892;3.992;2023-08-12T14:27:52;26.60;99.90
21592;DHT22;10958;50.892;3.992;2023-08-12T14:30:18;26.40;99.90
21592;DHT22;10958;50.892;3.992;2023-08-12T14:32:46;26.10;99.90
21592;DHT22;10958;50.892;3.992;2023-08-12T14:35:12;26.20;99.90
21592;DHT22;10958;50.892;3.992;2023-08-12T14:37:40;25.60;99.90
21592;DHT22;10958;50.892;3.992;2023-08-12T14:40:07;25.70;99.90
21592;DHT22;10958;50.892;3.992;2023-08-12T14:42:33;25.60;99.90
21592;DHT22;10958;50.892;3.992;2023-08-12T14:44:58;25.80;99.90
21592;DHT22;10958;50.892;3.992;2023-08-12T14:47:27;25.60;99.90
21592;DHT22;10958;50.892;3.992;2023-08-12T14:49:52;25.40;99.90
21592;DHT22;10958;50.892;3.992;2023-08-12T14:52:20;25.30;99.90
21592;DHT22;10958;50.892;3.992;2023-08-12T14:54:46;25.50;99.90
21592;DHT22;10958;50.892;3.992;2023-08-12T14:57:12;25.70;99.90
21592;DHT22;10958;50.892;3.992;2023-08-12T14:59:39;25.90;99.90
21592;DHT22;10958;50.892;3.992;2023-08-12T15:02:07;26.00;99.90
21592;DHT22;10958;50.892;3.992;2023-08-12T15:04:33;25.60;99.90
21592;DHT22;10958;50.892;3.992;2023-08-12T15:06:59;25.60;99.90
21592;DHT22;10958;50.892;3.992;2023-08-12T15:09:25;25.50;99.90
21592;DHT22;10958;50.892;3.992;2023-08-12T15:11:50;25.60;99.90
21592;DHT22;10958;50.892;3.992;2023-08-12T15:14:17;25.50;99.90
21592;DHT22;10958;50.892;3.992;2023-08-12T15:16:44;25.20;99.90
21592;DHT22;10958;50.892;3.992;2023-08-12T15:19:11;25.40;99.90
21592;DHT22;10958;50.892;3.992;2023-08-12T15:21:36;25.20;99.90
21592;DHT22;10958;50.892;3.992;2023-08-12T15:24:02;25.20;99.90
21592;DHT22;10958;50.892;3.992;2023-08-12T15:26:28;25.40;99.90
21592;DHT22;10958;50.892;3.992;2023-08-12T15:28:54;25.50;99.90
21592;DHT22;10958;50.892;3.992;2023-08-12T15:31:19;25.70;99.90
21592;DHT22;10958;50.892;3.992;2023-08-12T15:33:47;25.70;99.90